sensor_id;sensor_type;location;lat;lon;timestamp;P1;durP1;ratioP1;P2;durP2;ratioP2
33367;SDS011;19724;51.114;13.906;2022-12-29T00:01:53;4.10;;;2.28;;
33367;SDS011;19724;51.114;13.906;2022-12-29T00:04:20;5.15;;;2.67;;
33367;SDS011;19724;51.114;13.906;2022-12-29T00:06:45;4.70;;;2.78;;
33367;SDS011;19724;51.114;13.906;2022-12-29T00:09:11;4.75;;;2.00;;
33367;SDS011;19724;51.114;13.906;2022-12-29T00:11:37;3.17;;;1.80;;
33367;SDS011;19724;51.114;13.906;2022-12-29T00:14:03;3.50;;;2.20;;
33367;SDS011;19724;51.114;13.906;2022-12-29T00:16:47;6.45;;;2.03;;
33367;SDS011;19724;51.114;13.906;2022-12-29T00:19:13;3.63;;;1.80;;
33367;SDS011;19724;51.114;13.906;2022-12-29T00:21:57;4.50;;;1.92;;
33367;SDS011;19724;51.114;13.906;2022-12-29T00:24:42;3.05;;;1.63;;
33367;SDS011;19724;51.114;13.906;2022-12-29T00:27:27;2.93;;;1.60;;
33367;SDS011;19724;51.114;13.906;2022-12-29T00:30:21;4.10;;;1.70;;
33367;SDS011;19724;51.114;13.906;2022-12-29T00:35:59;6.50;;;1.92;;
33367;SDS011;19724;51.114;13.906;2022-12-29T00:38:32;8.20;;;2.10;;
33367;SDS011;19724;51.114;13.906;2022-12-29T00:41:19;3.55;;;1.70;;
33367;SDS011;19724;51.114;13.906;2022-12-29T00:44:03;5.78;;;2.63;;
33367;SDS011;19724;51.114;13.906;2022-12-29T00:46:33;2.63;;;1.40;;
33367;SDS011;19724;51.114;13.906;2022-12-29T00:49:00;2.80;;;1.45;;
33367;SDS011;19724;51.114;13.906;2022-12-29T00:51:45;3.80;;;2.00;;
33367;SDS011;19724;51.114;13.906;2022-12-29T00:54:12;3.17;;;1.42;;
33367;SDS011;19724;51.114;13.906;2022-12-29T00:56:38;4.45;;;1.50;;
33367;SDS011;19724;51.114;13.906;2022-12-29T00:59:05;4.65;;;1.88;;
33367;SDS011;19724;51.114;13.906;2022-12-29T01:01:32;3.30;;;1.67;;
33367;SDS011;19724;51.114;13.906;2022-12-29T01:03:58;3.30;;;1.83;;
33367;SDS011;19724;51.114;13.906;2022-12-29T01:06:24;4.97;;;1.35;;
33367;SDS011;19724;51.114;13.906;2022-12-29T01:08:50;5.25;;;1.73;;
33367;SDS011;19724;51.114;13.906;2022-12-29T01:11:36;2.90;;;1.70;;
33367;SDS011;19724;51.114;13.906;2022-12-29T01:14:01;3.03;;;1.73;;
33367;SDS011;19724;51.114;13.906;2022-12-29T01:16:27;5.15;;;2.00;;
33367;SDS011;19724;51.114;13.906;2022-12-29T01:18:53;4.90;;;1.67;;
33367;SDS011;19724;51.114;13.906;2022-12-29T01:21:18;3.97;;;2.20;;
33367;SDS011;19724;51.114;13.906;2022-12-29T01:23:44;3.88;;;1.80;;
33367;SDS011;19724;51.114;13.906;2022-12-29T01:26:10;3.78;;;1.83;;
33367;SDS011;19724;51.114;13.906;2022-12-29T01:28:36;4.70;;;1.85;;
33367;SDS011;19724;51.114;13.906;2022-12-29T01:31:04;3.60;;;1.85;;
33367;SDS011;19724;51.114;13.906;2022-12-29T01:33:30;7.75;;;2.60;;
33367;SDS011;19724;51.114;13.906;2022-12-29T01:36:00;3.28;;;1.95;;
33367;SDS011;19724;51.114;13.906;2022-12-29T01:38:28;4.10;;;2.00;;
33367;SDS011;19724;51.114;13.906;2022-12-29T01:41:07;4.43;;;2.05;;
33367;SDS011;19724;51.114;13.906;2022-12-29T01:43:38;3.53;;;2.03;;
33367;SDS011;19724;51.114;13.906;2022-12-29T01:51:33;5.57;;;2.42;;
33367;SDS011;19724;51.114;13.906;2022-12-29T01:54:05;4.18;;;1.98;;
33367;SDS011;19724;51.114;13.906;2022-12-29T01:56:36;5.75;;;2.20;;
33367;SDS011;19724;51.114;13.906;2022-12-29T01:59:04;6.78;;;2.75;;
33367;SDS011;19724;51.114;13.906;2022-12-29T02:01:39;4.45;;;2.22;;
33367;SDS011;19724;51.114;13.906;2022-12-29T02:04:08;5.30;;;2.60;;
33367;SDS011;19724;51.114;13.906;2022-12-29T02:06:47;3.97;;;2.42;;
33367;SDS011;19724;51.114;13.906;2022-12-29T02:09:18;7.75;;;3.13;;
33367;SDS011;19724;51.114;13.906;2022-12-29T02:11:45;5.28;;;2.22;;
33367;SDS011;19724;51.114;13.906;2022-12-29T02:14:12;7.32;;;3.42;;
33367;SDS011;19724;51.114;13.906;2022-12-29T02:16:40;4.25;;;2.65;;
33367;SDS011;19724;51.114;13.906;2022-12-29T02:19:41;4.43;;;2.28;;
33367;SDS011;19724;51.114;13.906;2022-12-29T02:22:42;7.05;;;3.67;;
33367;SDS011;19724;51.114;13.906;2022-12-29T02:30:36;9.10;;;3.65;;
33367;SDS011;19724;51.114;13.906;2022-12-29T02:38:40;5.10;;;3.35;;
33367;SDS011;19724;51.114;13.906;2022-12-29T02:41:18;7.25;;;3.13;;
33367;SDS011;19724;51.114;13.906;2022-12-29T02:43:50;5.50;;;3.15;;
33367;SDS011;19724;51.114;13.906;2022-12-29T02:52:01;6.68;;;3.33;;
33367;SDS011;19724;51.114;13.906;2022-12-29T02:54:39;12.55;;;3.83;;
33367;SDS011;19724;51.114;13.906;2022-12-29T02:57:12;4.63;;;2.85;;
33367;SDS011;19724;51.114;13.906;2022-12-29T03:00:04;6.38;;;3.13;;
33367;SDS011;19724;51.114;13.906;2022-12-29T03:08:23;5.23;;;3.37;;
33367;SDS011;19724;51.114;13.906;2022-12-29T03:13:47;4.57;;;2.75;;
33367;SDS011;19724;51.114;13.906;2022-12-29T03:16:43;6.10;;;3.10;;
33367;SDS011;19724;51.114;13.906;2022-12-29T03:19:23;7.03;;;2.50;;
33367;SDS011;19724;51.114;13.906;2022-12-29T03:22:05;5.13;;;2.53;;
33367;SDS011;19724;51.114;13.906;2022-12-29T03:24:52;5.22;;;2.28;;
33367;SDS011;19724;51.114;13.906;2022-12-29T03:27:32;4.70;;;2.17;;
33367;SDS011;19724;51.114;13.906;2022-12-29T03:30:04;3.78;;;1.80;;
33367;SDS011;19724;51.114;13.906;2022-12-29T03:32:36;3.53;;;2.00;;
33367;SDS011;19724;51.114;13.906;2022-12-29T03:35:07;3.67;;;2.00;;
33367;SDS011;19724;51.114;13.906;2022-12-29T03:37:36;3.85;;;2.00;;
33367;SDS011;19724;51.114;13.906;2022-12-29T03:40:06;3.15;;;1.77;;
33367;SDS011;19724;51.114;13.906;2022-12-29T03:42:32;3.15;;;1.88;;
33367;SDS011;19724;51.114;13.906;2022-12-29T03:45:00;3.85;;;1.65;;
33367;SDS011;19724;51.114;13.906;2022-12-29T03:47:26;3.33;;;2.35;;
33367;SDS011;19724;51.114;13.906;2022-12-29T03:49:53;2.97;;;2.00;;
33367;SDS011;19724;51.114;13.906;2022-12-29T03:52:18;4.40;;;2.60;;
33367;SDS011;19724;51.114;13.906;2022-12-29T03:54:44;4.82;;;2.58;;
33367;SDS011;19724;51.114;13.906;2022-12-29T03:57:10;5.57;;;2.88;;
33367;SDS011;19724;51.114;13.906;2022-12-29T03:59:36;5.22;;;3.08;;
33367;SDS011;19724;51.114;13.906;2022-12-29T04:02:01;5.80;;;2.70;;
33367;SDS011;19724;51.114;13.906;2022-12-29T04:04:27;6.18;;;2.70;;
33367;SDS011;19724;51.114;13.906;2022-12-29T04:06:52;6.55;;;2.95;;
33367;SDS011;19724;51.114;13.906;2022-12-29T04:09:18;6.68;;;2.67;;
33367;SDS011;19724;51.114;13.906;2022-12-29T04:11:44;3.78;;;2.47;;
33367;SDS011;19724;51.114;13.906;2022-12-29T04:14:09;6.82;;;2.70;;
33367;SDS011;19724;51.114;13.906;2022-12-29T04:16:35;4.80;;;2.75;;
33367;SDS011;19724;51.114;13.906;2022-12-29T04:19:01;4.82;;;2.08;;
33367;SDS011;19724;51.114;13.906;2022-12-29T04:21:27;4.15;;;2.55;;
33367;SDS011;19724;51.114;13.906;2022-12-29T04:23:52;7.03;;;2.47;;
33367;SDS011;19724;51.114;13.906;2022-12-29T04:26:18;5.07;;;2.35;;
33367;SDS011;19724;51.114;13.906;2022-12-29T04:28:43;3.97;;;2.67;;
33367;SDS011;19724;51.114;13.906;2022-12-29T04:31:09;4.35;;;2.28;;
33367;SDS011;19724;51.114;13.906;2022-12-29T04:33:35;4.22;;;2.50;;
33367;SDS011;19724;51.114;13.906;2022-12-29T04:36:01;5.65;;;2.50;;
33367;SDS011;19724;51.114;13.906;2022-12-29T04:38:26;4.40;;;2.35;;
33367;SDS011;19724;51.114;13.906;2022-12-29T04:40:55;5.47;;;2.22;;
33367;SDS011;19724;51.114;13.906;2022-12-29T04:43:20;4.32;;;2.50;;
33367;SDS011;19724;51.114;13.906;2022-12-29T04:45:48;4.70;;;1.88;;
33367;SDS011;19724;51.114;13.906;2022-12-29T04:48:14;6.53;;;2.40;;
33367;SDS011;19724;51.114;13.906;2022-12-29T04:50:40;3.83;;;2.00;;
33367;SDS011;19724;51.114;13.906;2022-12-29T04:53:09;1.90;;;1.20;;
33367;SDS011;19724;51.114;13.906;2022-12-29T04:55:37;5.28;;;1.80;;
33367;SDS011;19724;51.114;13.906;2022-12-29T04:58:46;2.25;;;1.27;;
33367;SDS011;19724;51.114;13.906;2022-12-29T05:01:50;4.05;;;1.83;;
33367;SDS011;19724;51.114;13.906;2022-12-29T05:04:16;4.72;;;1.95;;
33367;SDS011;19724;51.114;13.906;2022-12-29T05:06:44;4.10;;;1.85;;
33367;SDS011;19724;51.114;13.906;2022-12-29T05:12:26;5.93;;;2.92;;
33367;SDS011;19724;51.114;13.906;2022-12-29T05:15:00;4.45;;;2.50;;
33367;SDS011;19724;51.114;13.906;2022-12-29T05:17:28;4.68;;;2.75;;
33367;SDS011;19724;51.114;13.906;2022-12-29T05:19:54;4.05;;;2.60;;
33367;SDS011;19724;51.114;13.906;2022-12-29T05:22:20;5.68;;;3.03;;
33367;SDS011;19724;51.114;13.906;2022-12-29T05:24:46;6.75;;;3.70;;
33367;SDS011;19724;51.114;13.906;2022-12-29T05:27:12;8.55;;;2.92;;
33367;SDS011;19724;51.114;13.906;2022-12-29T05:29:37;4.68;;;3.10;;
33367;SDS011;19724;51.114;13.906;2022-12-29T05:32:03;6.38;;;3.72;;
33367;SDS011;19724;51.114;13.906;2022-12-29T05:34:29;7.80;;;3.42;;
33367;SDS011;19724;51.114;13.906;2022-12-29T05:36:54;6.60;;;3.78;;
33367;SDS011;19724;51.114;13.906;2022-12-29T05:39:20;8.13;;;3.90;;
33367;SDS011;19724;51.114;13.906;2022-12-29T05:41:45;4.90;;;3.17;;
33367;SDS011;19724;51.114;13.906;2022-12-29T05:44:11;6.22;;;3.70;;
33367;SDS011;19724;51.114;13.906;2022-12-29T05:46:37;6.38;;;3.72;;
33367;SDS011;19724;51.114;13.906;2022-12-29T05:49:03;8.18;;;3.80;;
33367;SDS011;19724;51.114;13.906;2022-12-29T05:51:28;8.13;;;3.53;;
33367;SDS011;19724;51.114;13.906;2022-12-29T05:53:57;8.57;;;4.35;;
33367;SDS011;19724;51.114;13.906;2022-12-29T05:56:24;7.53;;;3.88;;
33367;SDS011;19724;51.114;13.906;2022-12-29T05:58:50;9.90;;;3.75;;
33367;SDS011;19724;51.114;13.906;2022-12-29T06:01:15;6.22;;;3.35;;
33367;SDS011;19724;51.114;13.906;2022-12-29T06:03:41;7.35;;;4.22;;
33367;SDS011;19724;51.114;13.906;2022-12-29T06:06:07;8.85;;;4.35;;
33367;SDS011;19724;51.114;13.906;2022-12-29T06:08:32;6.35;;;4.28;;
33367;SDS011;19724;51.114;13.906;2022-12-29T06:10:58;5.55;;;3.53;;
33367;SDS011;19724;51.114;13.906;2022-12-29T06:13:24;6.75;;;3.70;;
33367;SDS011;19724;51.114;13.906;2022-12-29T06:15:52;6.70;;;4.30;;
33367;SDS011;19724;51.114;13.906;2022-12-29T06:18:17;6.60;;;4.80;;
33367;SDS011;19724;51.114;13.906;2022-12-29T06:20:43;9.40;;;5.00;;
33367;SDS011;19724;51.114;13.906;2022-12-29T06:23:09;6.75;;;4.53;;
33367;SDS011;19724;51.114;13.906;2022-12-29T06:25:34;10.93;;;5.18;;
33367;SDS011;19724;51.114;13.906;2022-12-29T06:28:01;7.93;;;4.00;;
33367;SDS011;19724;51.114;13.906;2022-12-29T06:30:27;6.60;;;3.33;;
33367;SDS011;19724;51.114;13.906;2022-12-29T06:32:52;7.20;;;2.88;;
33367;SDS011;19724;51.114;13.906;2022-12-29T06:35:19;4.30;;;2.78;;
33367;SDS011;19724;51.114;13.906;2022-12-29T06:37:45;4.65;;;2.45;;
33367;SDS011;19724;51.114;13.906;2022-12-29T06:40:10;4.88;;;2.15;;
33367;SDS011;19724;51.114;13.906;2022-12-29T06:42:40;3.53;;;2.10;;
33367;SDS011;19724;51.114;13.906;2022-12-29T06:45:05;4.22;;;2.20;;
33367;SDS011;19724;51.114;13.906;2022-12-29T06:47:32;4.28;;;2.30;;
33367;SDS011;19724;51.114;13.906;2022-12-29T06:49:58;5.15;;;2.00;;
33367;SDS011;19724;51.114;13.906;2022-12-29T06:52:25;5.38;;;2.00;;
33367;SDS011;19724;51.114;13.906;2022-12-29T06:54:51;4.45;;;2.10;;
33367;SDS011;19724;51.114;13.906;2022-12-29T06:57:16;5.65;;;2.70;;
33367;SDS011;19724;51.114;13.906;2022-12-29T06:59:42;3.33;;;1.85;;
33367;SDS011;19724;51.114;13.906;2022-12-29T07:02:09;4.57;;;2.20;;
33367;SDS011;19724;51.114;13.906;2022-12-29T07:04:39;3.45;;;1.73;;
33367;SDS011;19724;51.114;13.906;2022-12-29T07:07:05;4.00;;;1.88;;
33367;SDS011;19724;51.114;13.906;2022-12-29T07:09:30;3.78;;;1.88;;
33367;SDS011;19724;51.114;13.906;2022-12-29T07:11:56;5.00;;;2.05;;
33367;SDS011;19724;51.114;13.906;2022-12-29T07:14:22;4.35;;;1.70;;
33367;SDS011;19724;51.114;13.906;2022-12-29T07:16:47;3.88;;;1.70;;
33367;SDS011;19724;51.114;13.906;2022-12-29T07:19:13;2.90;;;1.83;;
33367;SDS011;19724;51.114;13.906;2022-12-29T07:21:38;3.50;;;1.85;;
33367;SDS011;19724;51.114;13.906;2022-12-29T07:24:04;3.10;;;1.95;;
33367;SDS011;19724;51.114;13.906;2022-12-29T07:26:30;6.80;;;2.03;;
33367;SDS011;19724;51.114;13.906;2022-12-29T07:28:55;3.35;;;1.83;;
33367;SDS011;19724;51.114;13.906;2022-12-29T07:31:24;3.55;;;1.60;;
33367;SDS011;19724;51.114;13.906;2022-12-29T07:33:49;2.70;;;1.73;;
33367;SDS011;19724;51.114;13.906;2022-12-29T07:36:15;4.00;;;1.90;;
33367;SDS011;19724;51.114;13.906;2022-12-29T07:38:41;3.92;;;1.73;;
33367;SDS011;19724;51.114;13.906;2022-12-29T07:41:07;4.30;;;2.03;;
33367;SDS011;19724;51.114;13.906;2022-12-29T07:43:33;3.53;;;1.67;;
33367;SDS011;19724;51.114;13.906;2022-12-29T07:45:58;3.50;;;1.60;;
33367;SDS011;19724;51.114;13.906;2022-12-29T07:48:24;3.90;;;1.40;;
33367;SDS011;19724;51.114;13.906;2022-12-29T07:50:49;5.13;;;1.85;;
33367;SDS011;19724;51.114;13.906;2022-12-29T07:53:16;3.20;;;1.60;;
33367;SDS011;19724;51.114;13.906;2022-12-29T07:55:42;3.38;;;1.67;;
33367;SDS011;19724;51.114;13.906;2022-12-29T07:58:07;4.60;;;1.73;;
33367;SDS011;19724;51.114;13.906;2022-12-29T08:00:33;2.00;;;1.35;;
33367;SDS011;19724;51.114;13.906;2022-12-29T08:02:58;4.03;;;1.92;;
33367;SDS011;19724;51.114;13.906;2022-12-29T08:05:24;4.72;;;1.80;;
33367;SDS011;19724;51.114;13.906;2022-12-29T08:07:50;3.53;;;1.42;;
33367;SDS011;19724;51.114;13.906;2022-12-29T08:10:15;4.15;;;1.67;;
33367;SDS011;19724;51.114;13.906;2022-12-29T08:12:41;6.95;;;1.98;;
33367;SDS011;19724;51.114;13.906;2022-12-29T08:15:08;4.40;;;1.90;;
33367;SDS011;19724;51.114;13.906;2022-12-29T08:17:35;2.55;;;1.35;;
33367;SDS011;19724;51.114;13.906;2022-12-29T08:20:00;5.05;;;2.05;;
33367;SDS011;19724;51.114;13.906;2022-12-29T08:22:26;4.00;;;1.80;;
33367;SDS011;19724;51.114;13.906;2022-12-29T08:24:52;5.05;;;2.05;;
33367;SDS011;19724;51.114;13.906;2022-12-29T08:27:18;8.27;;;2.15;;
33367;SDS011;19724;51.114;13.906;2022-12-29T08:29:43;3.97;;;2.33;;
33367;SDS011;19724;51.114;13.906;2022-12-29T08:32:09;5.00;;;2.83;;
33367;SDS011;19724;51.114;13.906;2022-12-29T08:34:35;4.03;;;2.10;;
33367;SDS011;19724;51.114;13.906;2022-12-29T08:37:00;4.18;;;1.92;;
33367;SDS011;19724;51.114;13.906;2022-12-29T08:39:26;4.40;;;2.00;;
33367;SDS011;19724;51.114;13.906;2022-12-29T08:41:52;4.75;;;1.95;;
33367;SDS011;19724;51.114;13.906;2022-12-29T08:44:17;6.07;;;2.00;;
33367;SDS011;19724;51.114;13.906;2022-12-29T08:46:43;5.78;;;1.80;;
33367;SDS011;19724;51.114;13.906;2022-12-29T08:49:08;3.15;;;1.85;;
33367;SDS011;19724;51.114;13.906;2022-12-29T08:51:34;7.10;;;2.58;;
33367;SDS011;19724;51.114;13.906;2022-12-29T08:53:59;4.63;;;1.70;;
33367;SDS011;19724;51.114;13.906;2022-12-29T08:56:25;6.72;;;1.95;;
33367;SDS011;19724;51.114;13.906;2022-12-29T08:58:51;3.97;;;1.95;;
33367;SDS011;19724;51.114;13.906;2022-12-29T09:01:17;3.25;;;1.77;;
33367;SDS011;19724;51.114;13.906;2022-12-29T09:03:43;3.92;;;1.88;;
33367;SDS011;19724;51.114;13.906;2022-12-29T09:06:08;4.32;;;1.50;;
33367;SDS011;19724;51.114;13.906;2022-12-29T09:08:34;5.55;;;1.80;;
33367;SDS011;19724;51.114;13.906;2022-12-29T09:11:06;4.30;;;1.88;;
33367;SDS011;19724;51.114;13.906;2022-12-29T09:13:36;3.83;;;2.00;;
33367;SDS011;19724;51.114;13.906;2022-12-29T09:16:02;5.72;;;1.75;;
33367;SDS011;19724;51.114;13.906;2022-12-29T09:18:28;3.83;;;1.55;;
33367;SDS011;19724;51.114;13.906;2022-12-29T09:20:55;3.33;;;1.60;;
33367;SDS011;19724;51.114;13.906;2022-12-29T09:23:26;2.25;;;1.23;;
33367;SDS011;19724;51.114;13.906;2022-12-29T09:25:52;5.00;;;1.83;;
33367;SDS011;19724;51.114;13.906;2022-12-29T09:28:18;4.05;;;1.60;;
33367;SDS011;19724;51.114;13.906;2022-12-29T09:30:44;2.67;;;1.60;;
33367;SDS011;19724;51.114;13.906;2022-12-29T09:33:09;4.90;;;1.67;;
33367;SDS011;19724;51.114;13.906;2022-12-29T09:35:35;4.93;;;1.77;;
33367;SDS011;19724;51.114;13.906;2022-12-29T09:38:01;3.20;;;1.98;;
33367;SDS011;19724;51.114;13.906;2022-12-29T09:40:31;4.82;;;1.70;;
33367;SDS011;19724;51.114;13.906;2022-12-29T09:46:08;4.65;;;1.90;;
33367;SDS011;19724;51.114;13.906;2022-12-29T09:48:37;4.65;;;1.55;;
33367;SDS011;19724;51.114;13.906;2022-12-29T09:51:09;4.40;;;1.63;;
33367;SDS011;19724;51.114;13.906;2022-12-29T09:53:39;3.28;;;1.40;;
33367;SDS011;19724;51.114;13.906;2022-12-29T09:56:17;4.10;;;1.63;;
33367;SDS011;19724;51.114;13.906;2022-12-29T09:58:57;4.35;;;2.15;;
33367;SDS011;19724;51.114;13.906;2022-12-29T10:01:44;3.42;;;1.40;;
33367;SDS011;19724;51.114;13.906;2022-12-29T10:04:18;4.68;;;2.00;;
33367;SDS011;19724;51.114;13.906;2022-12-29T10:06:54;3.42;;;1.90;;
33367;SDS011;19724;51.114;13.906;2022-12-29T10:12:33;2.90;;;1.40;;
33367;SDS011;19724;51.114;13.906;2022-12-29T10:15:29;3.45;;;1.38;;
33367;SDS011;19724;51.114;13.906;2022-12-29T10:23:42;3.55;;;1.88;;
33367;SDS011;19724;51.114;13.906;2022-12-29T10:26:30;8.35;;;2.70;;
33367;SDS011;19724;51.114;13.906;2022-12-29T10:29:04;3.28;;;1.50;;
33367;SDS011;19724;51.114;13.906;2022-12-29T10:31:37;2.65;;;1.40;;
33367;SDS011;19724;51.114;13.906;2022-12-29T10:34:19;2.83;;;1.42;;
33367;SDS011;19724;51.114;13.906;2022-12-29T10:36:49;4.93;;;1.38;;
33367;SDS011;19724;51.114;13.906;2022-12-29T10:39:23;2.17;;;1.40;;
33367;SDS011;19724;51.114;13.906;2022-12-29T10:41:57;3.85;;;1.50;;
33367;SDS011;19724;51.114;13.906;2022-12-29T10:44:33;2.53;;;1.40;;
33367;SDS011;19724;51.114;13.906;2022-12-29T10:47:00;3.10;;;1.45;;
33367;SDS011;19724;51.114;13.906;2022-12-29T10:49:30;4.63;;;2.10;;
33367;SDS011;19724;51.114;13.906;2022-12-29T10:51:58;3.70;;;1.50;;
33367;SDS011;19724;51.114;13.906;2022-12-29T10:54:32;3.30;;;1.30;;
33367;SDS011;19724;51.114;13.906;2022-12-29T10:57:05;3.33;;;1.50;;
33367;SDS011;19724;51.114;13.906;2022-12-29T11:04:47;2.30;;;1.17;;
33367;SDS011;19724;51.114;13.906;2022-12-29T11:07:18;2.40;;;1.23;;
33367;SDS011;19724;51.114;13.906;2022-12-29T11:09:45;1.80;;;1.10;;
33367;SDS011;19724;51.114;13.906;2022-12-29T11:14:45;2.88;;;1.10;;
33367;SDS011;19724;51.114;13.906;2022-12-29T11:17:14;1.58;;;1.10;;
33367;SDS011;19724;51.114;13.906;2022-12-29T11:19:41;5.50;;;1.33;;
33367;SDS011;19724;51.114;13.906;2022-12-29T11:22:24;2.70;;;1.30;;
33367;SDS011;19724;51.114;13.906;2022-12-29T11:24:52;4.45;;;2.03;;
33367;SDS011;19724;51.114;13.906;2022-12-29T11:27:20;2.95;;;1.50;;
33367;SDS011;19724;51.114;13.906;2022-12-29T11:29:48;4.18;;;1.45;;
33367;SDS011;19724;51.114;13.906;2022-12-29T11:32:19;6.30;;;1.98;;
33367;SDS011;19724;51.114;13.906;2022-12-29T11:34:47;2.80;;;1.63;;
33367;SDS011;19724;51.114;13.906;2022-12-29T11:40:26;3.35;;;1.58;;
33367;SDS011;19724;51.114;13.906;2022-12-29T11:42:52;4.55;;;1.83;;
33367;SDS011;19724;51.114;13.906;2022-12-29T11:45:34;4.40;;;1.58;;
33367;SDS011;19724;51.114;13.906;2022-12-29T11:48:38;3.65;;;1.60;;
33367;SDS011;19724;51.114;13.906;2022-12-29T11:50:57;2.60;;;1.52;;
33367;SDS011;19724;51.114;13.906;2022-12-29T11:53:42;3.38;;;1.65;;
33367;SDS011;19724;51.114;13.906;2022-12-29T11:58:39;4.03;;;1.83;;
33367;SDS011;19724;51.114;13.906;2022-12-29T12:01:06;3.70;;;1.73;;
33367;SDS011;19724;51.114;13.906;2022-12-29T12:04:16;4.28;;;1.50;;
33367;SDS011;19724;51.114;13.906;2022-12-29T12:06:40;3.23;;;1.90;;
33367;SDS011;19724;51.114;13.906;2022-12-29T12:09:29;4.63;;;1.73;;
33367;SDS011;19724;51.114;13.906;2022-12-29T12:11:59;3.00;;;1.55;;
33367;SDS011;19724;51.114;13.906;2022-12-29T12:14:31;4.05;;;1.70;;
33367;SDS011;19724;51.114;13.906;2022-12-29T12:17:04;6.20;;;2.10;;
33367;SDS011;19724;51.114;13.906;2022-12-29T12:19:45;3.92;;;1.83;;
33367;SDS011;19724;51.114;13.906;2022-12-29T12:22:27;3.97;;;1.90;;
33367;SDS011;19724;51.114;13.906;2022-12-29T12:27:59;3.45;;;1.27;;
33367;SDS011;19724;51.114;13.906;2022-12-29T12:30:36;2.00;;;1.30;;
33367;SDS011;19724;51.114;13.906;2022-12-29T12:38:46;3.88;;;1.42;;
33367;SDS011;19724;51.114;13.906;2022-12-29T12:44:12;2.60;;;1.48;;
33367;SDS011;19724;51.114;13.906;2022-12-29T12:46:57;3.47;;;2.00;;
33367;SDS011;19724;51.114;13.906;2022-12-29T12:49:38;4.53;;;1.70;;
33367;SDS011;19724;51.114;13.906;2022-12-29T12:52:10;4.43;;;1.45;;
33367;SDS011;19724;51.114;13.906;2022-12-29T12:58:00;2.05;;;1.10;;
33367;SDS011;19724;51.114;13.906;2022-12-29T13:00:46;4.78;;;1.55;;
33367;SDS011;19724;51.114;13.906;2022-12-29T13:03:39;3.13;;;1.45;;
33367;SDS011;19724;51.114;13.906;2022-12-29T13:06:34;3.55;;;1.55;;
33367;SDS011;19724;51.114;13.906;2022-12-29T13:14:27;5.05;;;1.70;;
33367;SDS011;19724;51.114;13.906;2022-12-29T13:20:15;2.95;;;1.40;;
33367;SDS011;19724;51.114;13.906;2022-12-29T13:23:14;2.03;;;1.38;;
33367;SDS011;19724;51.114;13.906;2022-12-29T13:26:01;3.92;;;1.50;;
33367;SDS011;19724;51.114;13.906;2022-12-29T13:28:59;5.22;;;1.52;;
33367;SDS011;19724;51.114;13.906;2022-12-29T13:36:51;4.07;;;1.52;;
33367;SDS011;19724;51.114;13.906;2022-12-29T13:39:39;3.10;;;1.20;;
33367;SDS011;19724;51.114;13.906;2022-12-29T13:42:07;3.88;;;1.75;;
33367;SDS011;19724;51.114;13.906;2022-12-29T13:45:19;2.67;;;1.60;;
33367;SDS011;19724;51.114;13.906;2022-12-29T13:47:27;3.15;;;1.45;;
33367;SDS011;19724;51.114;13.906;2022-12-29T13:50:08;5.13;;;1.55;;
33367;SDS011;19724;51.114;13.906;2022-12-29T13:52:55;6.55;;;1.80;;
33367;SDS011;19724;51.114;13.906;2022-12-29T14:01:03;7.85;;;2.00;;
33367;SDS011;19724;51.114;13.906;2022-12-29T14:03:50;3.47;;;1.48;;
33367;SDS011;19724;51.114;13.906;2022-12-29T14:08:52;3.92;;;1.67;;
33367;SDS011;19724;51.114;13.906;2022-12-29T14:11:20;4.47;;;1.50;;
33367;SDS011;19724;51.114;13.906;2022-12-29T14:13:49;3.55;;;1.40;;
33367;SDS011;19724;51.114;13.906;2022-12-29T14:16:31;4.85;;;1.42;;
33367;SDS011;19724;51.114;13.906;2022-12-29T14:21:59;2.72;;;1.25;;
33367;SDS011;19724;51.114;13.906;2022-12-29T14:29:48;3.28;;;1.85;;
33367;SDS011;19724;51.114;13.906;2022-12-29T14:34:46;2.97;;;1.80;;
33367;SDS011;19724;51.114;13.906;2022-12-29T14:37:25;4.07;;;1.77;;
33367;SDS011;19724;51.114;13.906;2022-12-29T14:42:42;3.90;;;1.60;;
33367;SDS011;19724;51.114;13.906;2022-12-29T14:47:43;3.17;;;1.30;;
33367;SDS011;19724;51.114;13.906;2022-12-29T14:53:03;5.03;;;1.83;;
33367;SDS011;19724;51.114;13.906;2022-12-29T15:01:20;6.85;;;1.60;;
33367;SDS011;19724;51.114;13.906;2022-12-29T15:04:14;3.50;;;1.52;;
33367;SDS011;19724;51.114;13.906;2022-12-29T15:06:43;3.78;;;2.05;;
33367;SDS011;19724;51.114;13.906;2022-12-29T15:09:14;5.35;;;1.60;;
33367;SDS011;19724;51.114;13.906;2022-12-29T15:11:52;3.55;;;1.52;;
33367;SDS011;19724;51.114;13.906;2022-12-29T15:14:47;4.43;;;1.90;;
33367;SDS011;19724;51.114;13.906;2022-12-29T15:17:29;5.25;;;1.52;;
33367;SDS011;19724;51.114;13.906;2022-12-29T15:19:57;2.03;;;1.25;;
33367;SDS011;19724;51.114;13.906;2022-12-29T15:22:24;2.75;;;1.42;;
33367;SDS011;19724;51.114;13.906;2022-12-29T15:24:51;3.35;;;1.88;;
33367;SDS011;19724;51.114;13.906;2022-12-29T15:27:22;5.03;;;1.77;;
33367;SDS011;19724;51.114;13.906;2022-12-29T15:29:59;4.38;;;1.48;;
33367;SDS011;19724;51.114;13.906;2022-12-29T15:32:40;3.03;;;1.33;;
33367;SDS011;19724;51.114;13.906;2022-12-29T15:35:28;3.70;;;1.50;;
33367;SDS011;19724;51.114;13.906;2022-12-29T15:37:56;4.47;;;1.40;;
33367;SDS011;19724;51.114;13.906;2022-12-29T15:40:24;3.17;;;1.55;;
33367;SDS011;19724;51.114;13.906;2022-12-29T15:43:12;2.80;;;1.33;;
33367;SDS011;19724;51.114;13.906;2022-12-29T15:46:01;1.92;;;1.30;;
33367;SDS011;19724;51.114;13.906;2022-12-29T15:48:30;3.70;;;1.55;;
33367;SDS011;19724;51.114;13.906;2022-12-29T15:50:59;3.47;;;1.75;;
33367;SDS011;19724;51.114;13.906;2022-12-29T15:53:29;2.88;;;1.20;;
33367;SDS011;19724;51.114;13.906;2022-12-29T15:56:00;1.88;;;0.90;;
33367;SDS011;19724;51.114;13.906;2022-12-29T15:58:31;3.33;;;1.17;;
33367;SDS011;19724;51.114;13.906;2022-12-29T16:01:15;3.13;;;1.45;;
33367;SDS011;19724;51.114;13.906;2022-12-29T16:03:58;3.55;;;1.20;;
33367;SDS011;19724;51.114;13.906;2022-12-29T16:06:38;2.47;;;1.17;;
33367;SDS011;19724;51.114;13.906;2022-12-29T16:09:19;4.38;;;1.63;;
33367;SDS011;19724;51.114;13.906;2022-12-29T16:11:55;1.75;;;1.00;;
33367;SDS011;19724;51.114;13.906;2022-12-29T16:14:36;2.03;;;1.15;;
33367;SDS011;19724;51.114;13.906;2022-12-29T16:19:47;2.65;;;1.33;;
33367;SDS011;19724;51.114;13.906;2022-12-29T16:22:24;6.40;;;1.50;;
33367;SDS011;19724;51.114;13.906;2022-12-29T16:25:00;3.55;;;1.05;;
33367;SDS011;19724;51.114;13.906;2022-12-29T16:27:50;3.85;;;1.30;;
33367;SDS011;19724;51.114;13.906;2022-12-29T16:30:20;2.17;;;1.17;;
33367;SDS011;19724;51.114;13.906;2022-12-29T16:32:50;2.47;;;1.30;;
33367;SDS011;19724;51.114;13.906;2022-12-29T16:38:21;3.92;;;1.60;;
33367;SDS011;19724;51.114;13.906;2022-12-29T16:40:51;1.98;;;1.20;;
33367;SDS011;19724;51.114;13.906;2022-12-29T16:48:30;3.45;;;1.27;;
33367;SDS011;19724;51.114;13.906;2022-12-29T16:51:12;4.20;;;2.05;;
33367;SDS011;19724;51.114;13.906;2022-12-29T16:53:41;4.35;;;1.30;;
33367;SDS011;19724;51.114;13.906;2022-12-29T16:56:14;3.28;;;1.50;;
33367;SDS011;19724;51.114;13.906;2022-12-29T16:58:45;2.58;;;1.25;;
33367;SDS011;19724;51.114;13.906;2022-12-29T17:01:12;5.38;;;1.40;;
33367;SDS011;19724;51.114;13.906;2022-12-29T17:03:45;5.93;;;2.30;;
33367;SDS011;19724;51.114;13.906;2022-12-29T17:06:17;2.78;;;1.38;;
33367;SDS011;19724;51.114;13.906;2022-12-29T17:08:44;1.83;;;1.00;;
33367;SDS011;19724;51.114;13.906;2022-12-29T17:11:17;2.40;;;1.50;;
33367;SDS011;19724;51.114;13.906;2022-12-29T17:14:31;2.20;;;1.23;;